| time (UTC) | temp F | wind direction | speed MPH | gust MPH | rain 1hr in | rain 24hr in | rain mn in | humidity % | barometer mb |
| 20260508203005 | 64 | 360 | 11.0 | 23.0 | 0.00 | 0.00 | 0.00 | 17 | 1011.1 |
| 20260508201503 | 65 | 351 | 11.0 | 25.0 | 0.00 | 0.00 | 0.00 | 19 | 1011.1 |
| 20260508194505 | 65 | 290 | 14.0 | 21.0 | 0.00 | 0.00 | 0.00 | 17 | 1011.4 |
| 20260508193150 | 65 | 315 | 7.0 | 21.0 | 0.00 | 0.00 | 0.00 | 17 | 1011.5 |
| 20260508191605 | 65 | 355 | 14.0 | 30.0 | 0.00 | 0.00 | 0.00 | 17 | 1011.4 |
| 20260508191503 | 65 | 24 | 13.0 | 30.0 | 0.00 | 0.00 | 0.00 | 18 | 1011.5 |
| 20260508184515 | 64 | 299 | 8.0 | 22.0 | 0.00 | 0.00 | 0.00 | 20 | 1011.6 |
| 20260508183021 | 63 | 360 | 9.0 | 23.0 | 0.00 | 0.00 | 0.00 | 21 | 1011.8 |
| 20260508181511 | 63 | 360 | 10.0 | 19.0 | 0.00 | 0.00 | 0.00 | 20 | 1011.9 |
| 20260508174552 | 63 | 298 | 7.0 | 21.0 | 0.00 | 0.00 | 0.00 | 22 | 1012.1 |
| 20260508173046 | 62 | 360 | 7.0 | 20.0 | 0.00 | 0.00 | 0.00 | 21 | 1012.0 |
| 20260508171544 | 63 | 360 | 10.0 | 20.0 | 0.00 | 0.00 | 0.00 | 22 | 1012.0 |
| 20260508164544 | 63 | 298 | 10.0 | 19.0 | 0.00 | 0.00 | 0.00 | 21 | 1012.0 |
| 20260508163036 | 63 | 293 | 8.0 | 16.0 | 0.00 | 0.00 | 0.00 | 21 | 1011.9 |
| 20260508161531 | 62 | 306 | 9.0 | 18.0 | 0.00 | 0.00 | 0.00 | 21 | 1011.8 |
| 20260508154540 | 59 | 360 | 9.0 | 15.0 | 0.00 | 0.00 | 0.00 | 25 | 1012.0 |
| 20260508153019 | 55 | 46 | 3.0 | 5.0 | 0.00 | 0.00 | 0.00 | 43 | 1011.9 |
| 20260508151516 | 52 | 360 | 1.0 | 6.0 | 0.00 | 0.00 | 0.00 | 48 | 1012.0 |
| 20260508144513 | 48 | 360 | 0.0 | 0.0 | 0.00 | 0.00 | 0.00 | 52 | 1012.1 |
| 20260508143009 | 46 | 360 | 0.0 | 0.0 | 0.00 | 0.00 | 0.00 | 57 | 1012.2 |
| 20260508141506 | 43 | 360 | 0.0 | 0.0 | 0.00 | 0.00 | 0.00 | 60 | 1012.3 |
| 20260508134622 | 39 | 360 | 0.0 | 0.0 | 0.00 | 0.00 | 0.00 | 65 | 1012.4 |
| 20260508133058 | 36 | 360 | 0.0 | 0.0 | 0.00 | 0.00 | 0.00 | 65 | 1012.5 |
| 20260508131551 | 35 | 360 | 0.0 | 0.0 | 0.00 | 0.00 | 0.00 | 65 | 1012.3 |
| 20260508124546 | 34 | 360 | 0.0 | 0.0 | 0.00 | 0.00 | 0.00 | 64 | 1012.1 |
| 20260508123050 | 34 | 360 | 0.0 | 0.0 | 0.00 | 0.00 | 0.00 | 64 | 1012.1 |
| 20260508121545 | 34 | 360 | 0.0 | 0.0 | 0.00 | 0.00 | 0.00 | 64 | 1011.9 |
| 20260508114538 | 34 | 360 | 0.0 | 0.0 | 0.00 | 0.00 | 0.00 | 64 | 1011.6 |
| 20260508113037 | 34 | 360 | 0.0 | 0.0 | 0.00 | 0.00 | 0.00 | 63 | 1011.6 |
| 20260508111537 | 35 | 360 | 0.0 | 0.0 | 0.00 | 0.00 | 0.00 | 63 | 1011.6 |
| 20260508104531 | 35 | 360 | 0.0 | 0.0 | 0.00 | 0.00 | 0.00 | 62 | 1011.6 |
| 20260508103033 | 35 | 360 | 0.0 | 0.0 | 0.00 | 0.00 | 0.00 | 61 | 1011.4 |
| 20260508101528 | 36 | 360 | 0.0 | 0.0 | 0.00 | 0.00 | 0.00 | 60 | 1011.3 |
| 20260508094526 | 36 | 360 | 0.0 | 0.0 | 0.00 | 0.00 | 0.00 | 59 | 1011.2 |
| 20260508093024 | 37 | 360 | 0.0 | 0.0 | 0.00 | 0.00 | 0.00 | 58 | 1011.1 |
| 20260508091523 | 37 | 360 | 0.0 | 0.0 | 0.00 | 0.00 | 0.00 | 58 | 1011.1 |
| 20260508084518 | 38 | 360 | 0.0 | 0.0 | 0.00 | 0.00 | 0.00 | 56 | 1011.2 |
| 20260508083015 | 38 | 360 | 0.0 | 0.0 | 0.00 | 0.00 | 0.00 | 56 | 1011.4 |
| 20260508081513 | 39 | 360 | 0.0 | 0.0 | 0.00 | 0.00 | 0.00 | 55 | 1011.4 |
| 20260508074511 | 40 | 360 | 0.0 | 0.0 | 0.00 | 0.00 | 0.00 | 54 | 1011.6 |
| 20260508073009 | 40 | 360 | 0.0 | 0.0 | 0.00 | 0.00 | 0.00 | 53 | 1011.5 |
| 20260508071508 | 41 | 360 | 0.0 | 0.0 | 0.00 | 0.00 | 0.00 | 53 | 1011.5 |
| 20260508064504 | 42 | 360 | 0.0 | 0.0 | 0.00 | 0.00 | 0.00 | 52 | 1011.5 |
| 20260508063008 | 42 | 360 | 0.0 | 0.0 | 0.00 | 0.00 | 0.00 | 51 | 1011.5 |
| 20260508061609 | 42 | 360 | 0.0 | 0.0 | 0.00 | 0.00 | 0.00 | 51 | 1011.5 |
| 20260508054501 | 44 | 360 | 0.0 | 0.0 | 0.00 | 0.00 | 0.00 | 48 | 1011.5 |
| 20260508053101 | 44 | 360 | 0.0 | 0.0 | 0.00 | 0.00 | 0.00 | 47 | 1011.3 |
| 20260508051614 | 45 | 360 | 0.0 | 0.0 | 0.00 | 0.00 | 0.00 | 47 | 1011.2 |
| 20260508044601 | 46 | 360 | 0.0 | 0.0 | 0.00 | 0.00 | 0.00 | 44 | 1011.2 |
| 20260508043100 | 48 | 360 | 0.0 | 2.0 | 0.00 | 0.00 | 0.00 | 43 | 1011.2 |
| 20260508041600 | 48 | 360 | 0.0 | 3.0 | 0.00 | 0.00 | 0.00 | 40 | 1011.3 |
| 20260508041502 | 49 | 360 | 0.0 | 3.0 | 0.00 | 0.00 | 0.00 | 40 | 1011.2 |
| 20260508034558 | 51 | 360 | 0.0 | 0.0 | 0.00 | 0.00 | 0.00 | 37 | 1011.2 |
| 20260508033101 | 52 | 360 | 0.0 | 0.0 | 0.00 | 0.00 | 0.00 | 35 | 1011.0 |
| 20260508031600 | 54 | 360 | 0.0 | 0.0 | 0.00 | 0.00 | 0.00 | 32 | 1010.9 |
| 20260508024618 | 56 | 360 | 3.0 | 4.0 | 0.00 | 0.00 | 0.00 | 30 | 1010.8 |
| 20260508023056 | 57 | 360 | 2.0 | 5.0 | 0.00 | 0.00 | 0.00 | 27 | 1010.6 |
| 20260508021605 | 59 | 360 | 2.0 | 5.0 | 0.00 | 0.00 | 0.00 | 25 | 1010.7 |
| 20260508020155 | 61 | 360 | 3.0 | 11.0 | 0.00 | 0.00 | 0.00 | 22 | 1010.6 |
| 20260508014556 | 61 | 360 | 5.0 | 12.0 | 0.00 | 0.00 | 0.00 | 21 | 1010.7 |
| 20260508013054 | 62 | 360 | 6.0 | 13.0 | 0.00 | 0.00 | 0.00 | 20 | 1010.6 |
| 20260508011601 | 62 | 348 | 7.0 | 15.0 | 0.00 | 0.00 | 0.00 | 20 | 1010.6 |
| 20260508004542 | 62 | 311 | 11.0 | 21.0 | 0.00 | 0.00 | 0.00 | 20 | 1010.7 |
| 20260508003029 | 62 | 282 | 8.0 | 15.0 | 0.00 | 0.00 | 0.00 | 19 | 1010.9 |
| 20260508001528 | 63 | 360 | 6.0 | 13.0 | 0.00 | 0.00 | 0.00 | 21 | 1011.2 |
| 20260508000011 | 62 | 360 | 7.0 | 16.0 | 0.00 | 0.00 | 0.00 | 21 | 1011.2 |
| 20260507234511 | 63 | 360 | 5.0 | 15.0 | 0.00 | 0.00 | 0.00 | 22 | 1011.5 |
| 20260507233009 | 63 | 360 | 6.0 | 14.0 | 0.00 | 0.00 | 0.00 | 22 | 1011.8 |
| 20260507231507 | 63 | 360 | 6.0 | 13.0 | 0.00 | 0.00 | 0.00 | 22 | 1012.0 |
| 20260507230005 | 63 | 360 | 9.0 | 16.0 | 0.00 | 0.00 | 0.00 | 22 | 1012.3 |
| 20260507224502 | 64 | 360 | 10.0 | 16.0 | 0.00 | 0.00 | 0.00 | 22 | 1012.6 |
| 20260507223003 | 65 | 298 | 7.0 | 20.0 | 0.00 | 0.00 | 0.00 | 21 | 1012.6 |
| 20260507221502 | 65 | 321 | 10.0 | 16.0 | 0.00 | 0.00 | 0.00 | 21 | 1012.7 |
| 20260507220101 | 64 | 341 | 10.0 | 19.0 | 0.00 | 0.00 | 0.00 | 20 | 1013.0 |
| 20260507214557 | 64 | 360 | 9.0 | 17.0 | 0.00 | 0.00 | 0.00 | 21 | 1013.0 |
| 20260507213056 | 64 | 315 | 9.0 | 20.0 | 0.00 | 0.00 | 0.00 | 21 | 1013.4 |
| 20260507211501 | 64 | 338 | 5.0 | 21.0 | 0.00 | 0.00 | 0.00 | 20 | 1013.7 |
| 20260507210111 | 64 | 315 | 7.0 | 14.0 | 0.00 | 0.00 | 0.00 | 22 | 1013.9 |
| 20260507204601 | 64 | 300 | 9.0 | 18.0 | 0.00 | 0.00 | 0.00 | 19 | 1014.3 |
| 20260507203122 | 64 | 302 | 8.0 | 18.0 | 0.00 | 0.00 | 0.00 | 20 | 1014.5 |